Time;durP1;ratioP1;P1;durP2;ratioP2;P2;SDS_P1;SDS_P2;PMS_P1;PMS_P2;Temp;Humidity;BMP_temperature;BMP_pressure;BME280_temperature;BME280_humidity;BME280_pressure;Samples;Min_cycle;Max_cycle;Signal;HPM_P1;HPM_P2
2023/09/20 00:00:10;;;;;;;1.75;1.02;;;16.20;99.90;;;;;;5034992;28;20053;-62
2023/09/20 00:02:40;;;;;;;0.80;0.77;;;16.10;99.90;;;;;;5034912;28;20037;-63
2023/09/20 00:05:15;;;;;;;1.30;0.85;;;16.10;99.90;;;;;;5034845;28;20496;-62
2023/09/20 00:07:44;;;;;;;1.80;0.90;;;16.10;99.90;;;;;;5034634;28;20491;-62
2023/09/20 00:10:15;;;;;;;1.17;0.75;;;16.60;99.90;;;;;;5016804;28;20072;-62
2023/09/20 00:12:41;;;;;;;2.30;1.02;;;16.20;99.90;;;;;;5033304;28;20041;-62
2023/09/20 00:15:08;;;;;;;1.00;0.68;;;16.20;99.90;;;;;;5034481;28;20173;-63
2023/09/20 00:17:34;;;;;;;0.85;0.77;;;16.20;99.90;;;;;;5034402;28;20037;-62
2023/09/20 00:20:13;;;;;;;2.63;1.02;;;16.30;99.90;;;;;;5034587;28;20041;-69
2023/09/20 00:22:43;;;;;;;1.80;0.93;;;16.30;99.90;;;;;;5034236;28;20126;-69
2023/09/20 00:25:13;;;;;;;1.33;0.88;;;16.30;99.90;;;;;;5034489;28;20071;-70
2023/09/20 00:27:39;;;;;;;2.33;0.98;;;16.30;99.90;;;;;;5034388;28;20448;-69
2023/09/20 00:30:10;;;;;;;1.40;1.02;;;16.40;99.90;;;;;;5034085;28;20068;-69
2023/09/20 00:32:39;;;;;;;2.20;1.35;;;16.40;99.90;;;;;;5034339;28;20049;-70
2023/09/20 00:35:13;;;;;;;0.73;0.70;;;16.70;99.90;;;;;;5034263;28;20060;-71
2023/09/20 00:37:44;;;;;;;1.63;0.95;;;16.40;99.90;;;;;;5016194;28;20044;-70
2023/09/20 00:40:15;;;;;;;1.15;0.70;;;16.40;99.90;;;;;;5016290;28;20055;-64
2023/09/20 00:42:42;;;;;;;1.80;1.05;;;16.50;99.90;;;;;;5034138;28;20429;-65
2023/09/20 00:45:08;;;;;;;1.67;1.00;;;16.50;99.90;;;;;;5034130;28;20125;-64
2023/09/20 00:47:34;;;;;;;2.55;0.93;;;16.50;99.90;;;;;;5016025;28;20473;-64
2023/09/20 00:50:00;;;;;;;1.90;1.05;;;17.50;99.90;;;;;;5033984;28;20083;-65
2023/09/20 00:52:28;;;;;;;2.25;1.15;;;16.50;99.90;;;;;;5033563;28;20420;-64
2023/09/20 00:54:57;;;;;;;1.25;0.80;;;16.50;99.90;;;;;;5033877;28;20092;-64
2023/09/20 00:57:25;;;;;;;1.58;1.05;;;16.70;99.90;;;;;;5033858;28;20033;-64
2023/09/20 00:59:51;;;;;;;1.00;0.75;;;16.60;99.90;;;;;;5033769;28;20041;-65
2023/09/20 01:02:18;;;;;;;1.63;1.00;;;16.60;99.90;;;;;;5033786;28;20049;-64
2023/09/20 01:04:44;;;;;;;1.38;0.90;;;16.60;99.90;;;;;;5033825;28;20124;-65
2023/09/20 01:07:10;;;;;;;1.75;1.00;;;16.60;99.90;;;;;;5033784;28;20060;-65
2023/09/20 01:09:36;;;;;;;1.48;1.20;;;16.70;99.90;;;;;;5015994;28;20047;-65
2023/09/20 01:12:05;;;;;;;1.95;1.10;;;16.70;99.90;;;;;;5033500;28;20042;-65
2023/09/20 01:14:31;;;;;;;1.23;0.88;;;16.70;99.90;;;;;;5033330;28;20503;-65
2023/09/20 01:16:56;;;;;;;1.23;1.00;;;16.90;99.90;;;;;;5033189;28;20136;-65
2023/09/20 01:19:22;;;;;;;1.08;0.75;;;16.70;99.90;;;;;;5033541;28;20080;-66
2023/09/20 01:21:47;;;;;;;3.95;1.15;;;16.70;99.90;;;;;;5033401;28;20033;-64
2023/09/20 01:24:14;;;;;;;1.35;0.70;;;16.80;99.90;;;;;;5033276;28;20056;-65
2023/09/20 01:26:44;;;;;;;1.00;0.65;;;16.80;99.90;;;;;;5033349;28;20095;-65
2023/09/20 01:29:11;;;;;;;0.70;0.65;;;16.80;99.90;;;;;;5033532;28;20045;-65
2023/09/20 01:31:37;;;;;;;1.70;1.13;;;16.80;99.90;;;;;;5032980;28;20054;-65
2023/09/20 01:34:03;;;;;;;0.85;0.75;;;16.80;99.90;;;;;;5033333;28;20044;-64
2023/09/20 01:36:28;;;;;;;1.40;0.73;;;16.80;99.90;;;;;;5033234;28;20049;-65
2023/09/20 01:38:54;;;;;;;1.00;0.70;;;16.80;99.90;;;;;;5033270;28;20037;-65
2023/09/20 01:41:19;;;;;;;2.53;1.27;;;16.80;99.90;;;;;;5033201;28;20040;-65
2023/09/20 01:43:45;;;;;;;0.75;0.65;;;16.80;99.90;;;;;;5032899;28;20049;-65
2023/09/20 01:46:11;;;;;;;3.10;1.17;;;16.80;99.90;;;;;;5033197;28;20474;-65
2023/09/20 01:48:37;;;;;;;1.48;1.15;;;16.80;99.90;;;;;;5033239;28;20092;-64
2023/09/20 01:51:03;;;;;;;1.15;1.05;;;17.00;99.90;;;;;;5032853;28;20038;-65
2023/09/20 01:53:29;;;;;;;3.13;1.02;;;16.90;99.90;;;;;;5014966;28;20531;-65
2023/09/20 01:55:57;;;;;;;0.98;0.88;;;16.90;99.90;;;;;;5033088;28;20136;-65
2023/09/20 01:58:23;;;;;;;0.95;0.80;;;16.90;99.90;;;;;;5032736;28;20045;-65
2023/09/20 02:00:50;;;;;;;1.80;1.00;;;16.80;99.90;;;;;;5032965;28;20041;-65
2023/09/20 02:03:18;;;;;;;2.50;1.13;;;16.90;99.90;;;;;;5014996;28;20087;-65
2023/09/20 02:05:48;;;;;;;1.13;1.00;;;16.90;99.90;;;;;;5032664;28;20045;-65
2023/09/20 02:08:14;;;;;;;1.58;0.70;;;16.90;99.90;;;;;;5032977;28;20428;-64
2023/09/20 02:10:40;;;;;;;2.45;0.77;;;16.90;99.90;;;;;;5032949;28;20052;-64
2023/09/20 02:13:06;;;;;;;1.75;0.88;;;16.90;99.90;;;;;;5033075;28;20469;-65
2023/09/20 02:15:36;;;;;;;2.50;1.00;;;16.90;99.90;;;;;;5032654;28;20564;-65
2023/09/20 02:18:06;;;;;;;1.80;0.93;;;16.90;99.90;;;;;;5032800;28;20144;-65
2023/09/20 02:20:36;;;;;;;1.67;0.90;;;16.90;99.90;;;;;;5015103;28;20124;-65
2023/09/20 02:23:04;;;;;;;1.10;0.80;;;16.90;99.90;;;;;;5032810;28;20121;-65
2023/09/20 02:25:29;;;;;;;1.10;0.77;;;16.90;99.90;;;;;;5032504;28;20038;-65
2023/09/20 02:27:59;;;;;;;1.45;0.90;;;16.90;99.90;;;;;;5014781;28;20471;-65
2023/09/20 02:30:28;;;;;;;1.27;0.98;;;16.90;99.90;;;;;;5032518;28;20037;-65
2023/09/20 02:32:58;;;;;;;1.30;1.00;;;16.90;99.90;;;;;;5014634;28;20464;-65
2023/09/20 02:35:25;;;;;;;1.90;1.05;;;16.90;99.90;;;;;;5033659;28;20038;-65
2023/09/20 02:37:52;;;;;;;0.95;0.65;;;16.90;99.90;;;;;;5036256;28;20135;-65
2023/09/20 02:40:18;;;;;;;2.33;0.88;;;16.90;99.90;;;;;;5036614;28;20060;-63
2023/09/20 02:42:47;;;;;;;0.82;0.57;;;16.90;99.90;;;;;;5036443;28;20049;-62
2023/09/20 02:45:13;;;;;;;1.00;0.70;;;17.00;99.90;;;;;;5036437;28;20077;-63
2023/09/20 02:47:40;;;;;;;1.77;1.00;;;17.00;99.90;;;;;;5036015;28;20120;-61
2023/09/20 02:50:18;;;;;;;1.45;0.77;;;17.00;99.90;;;;;;5036040;28;20048;-62
2023/09/20 02:52:45;;;;;;;2.08;0.95;;;17.00;99.90;;;;;;5036122;28;20084;-66
2023/09/20 02:55:13;;;;;;;1.70;1.08;;;17.80;99.90;;;;;;5036185;28;20038;-61
2023/09/20 02:57:40;;;;;;;1.88;0.90;;;17.00;99.90;;;;;;5035875;28;20087;-61
2023/09/20 03:00:17;;;;;;;1.35;0.70;;;17.00;99.90;;;;;;5036552;28;20037;-68
2023/09/20 03:02:47;;;;;;;1.73;0.90;;;17.00;99.90;;;;;;5035792;28;20103;-68
2023/09/20 03:05:17;;;;;;;1.55;0.85;;;16.90;99.90;;;;;;5035729;28;20092;-69
2023/09/20 03:07:44;;;;;;;1.27;0.88;;;16.90;99.90;;;;;;5035930;28;20091;-69
2023/09/20 03:10:14;;;;;;;1.10;0.70;;;16.90;99.90;;;;;;5035912;28;20416;-70
2023/09/20 03:12:44;;;;;;;0.75;0.73;;;16.90;99.90;;;;;;5017984;28;20049;-69
2023/09/20 03:15:17;;;;;;;1.67;0.88;;;16.90;99.90;;;;;;5035687;28;20063;-68
2023/09/20 03:17:44;;;;;;;0.60;0.60;;;17.50;99.90;;;;;;5035691;28;20054;-69
2023/09/20 03:20:10;;;;;;;1.73;0.85;;;16.90;99.90;;;;;;5017779;28;20048;-69
2023/09/20 03:22:39;;;;;;;1.83;0.90;;;17.00;99.90;;;;;;5035674;28;20045;-69
2023/09/20 03:25:13;;;;;;;1.30;0.90;;;16.90;99.90;;;;;;5017665;28;20068;-70
2023/09/20 03:27:40;;;;;;;1.42;0.93;;;16.90;99.90;;;;;;5017579;28;20053;-69
2023/09/20 03:30:08;;;;;;;2.75;1.10;;;16.90;99.90;;;;;;5035531;28;20042;-69
2023/09/20 03:32:33;;;;;;;2.33;0.98;;;16.90;99.90;;;;;;5017541;28;20485;-69
2023/09/20 03:34:59;;;;;;;0.70;0.70;;;16.90;99.90;;;;;;5017771;28;20120;-70
2023/09/20 03:37:25;;;;;;;0.75;0.75;;;16.90;99.90;;;;;;5017607;28;20085;-68
2023/09/20 03:39:51;;;;;;;1.77;1.05;;;16.90;99.90;;;;;;5035363;28;20033;-69
2023/09/20 03:42:17;;;;;;;2.05;0.93;;;17.00;99.90;;;;;;5035308;28;20471;-69
2023/09/20 03:44:42;;;;;;;1.35;0.98;;;16.90;99.90;;;;;;5035332;28;20038;-67
2023/09/20 03:47:08;;;;;;;1.85;0.88;;;16.90;99.90;;;;;;5017224;28;20076;-69
2023/09/20 03:49:33;;;;;;;1.40;0.77;;;16.90;99.90;;;;;;5035296;28;20500;-62
2023/09/20 03:52:00;;;;;;;1.45;0.90;;;16.90;99.90;;;;;;5034727;28;20049;-61
2023/09/20 03:54:26;;;;;;;1.08;0.60;;;16.90;99.90;;;;;;5035136;28;20034;-61
2023/09/20 03:56:52;;;;;;;1.50;1.05;;;16.90;99.90;;;;;;5034759;28;20041;-61
2023/09/20 03:59:18;;;;;;;1.95;0.90;;;16.90;99.90;;;;;;5034955;28;20037;-61
2023/09/20 04:01:44;;;;;;;2.35;1.08;;;16.80;99.90;;;;;;5034974;28;20044;-61
2023/09/20 04:04:09;;;;;;;1.58;1.00;;;16.80;99.90;;;;;;5034694;28;20037;-61
2023/09/20 04:06:35;;;;;;;1.92;1.08;;;16.70;99.90;;;;;;5034858;28;20037;-61
2023/09/20 04:09:09;;;;;;;1.05;0.77;;;16.70;99.90;;;;;;5034902;28;20037;-62
2023/09/20 04:11:40;;;;;;;1.27;0.73;;;16.70;99.90;;;;;;5034883;28;20045;-61
2023/09/20 04:14:07;;;;;;;1.15;0.95;;;16.60;99.90;;;;;;5034767;28;20264;-61
2023/09/20 04:16:35;;;;;;;0.90;0.70;;;16.60;99.90;;;;;;5034371;28;20084;-61
2023/09/20 04:19:01;;;;;;;1.23;0.90;;;16.50;99.90;;;;;;5016814;28;20142;-61
2023/09/20 04:21:26;;;;;;;2.15;1.35;;;16.50;99.90;;;;;;5034623;28;20045;-61
2023/09/20 04:23:52;;;;;;;1.55;0.80;;;16.50;99.90;;;;;;5034507;28;20092;-61
2023/09/20 04:26:17;;;;;;;2.10;0.98;;;16.40;99.90;;;;;;5034523;28;20025;-61
2023/09/20 04:28:43;;;;;;;0.70;0.65;;;16.40;99.90;;;;;;5034475;28;20116;-61
2023/09/20 04:31:09;;;;;;;0.77;0.77;;;16.40;99.90;;;;;;5034429;28;20037;-61
2023/09/20 04:33:38;;;;;;;1.20;0.82;;;16.40;99.90;;;;;;5034185;28;20041;-64
2023/09/20 04:36:04;;;;;;;0.93;0.65;;;16.20;99.90;;;;;;5034282;28;20029;-61
2023/09/20 04:38:31;;;;;;;1.00;0.90;;;16.30;99.90;;;;;;5034092;28;20041;-61
2023/09/20 04:40:59;;;;;;;0.85;0.77;;;16.30;99.90;;;;;;5034191;28;20374;-64
2023/09/20 04:43:25;;;;;;;0.80;0.70;;;16.20;99.90;;;;;;5016020;28;20171;-61
2023/09/20 04:45:51;;;;;;;1.70;1.02;;;16.20;99.90;;;;;;5033791;28;20086;-61
2023/09/20 04:48:16;;;;;;;2.60;1.08;;;16.20;99.90;;;;;;5033965;28;20128;-60
2023/09/20 04:50:42;;;;;;;1.58;1.00;;;16.20;99.90;;;;;;5016005;28;20057;-62
2023/09/20 04:53:07;;;;;;;1.65;1.02;;;16.10;99.90;;;;;;5033613;28;20498;-60
2023/09/20 04:55:34;;;;;;;1.02;0.80;;;16.20;99.90;;;;;;5033938;28;20121;-60
2023/09/20 04:58:02;;;;;;;1.33;1.00;;;16.10;99.90;;;;;;5015385;28;20051;-61
2023/09/20 05:00:33;;;;;;;1.63;0.77;;;16.10;99.90;;;;;;5034003;28;20401;-62
2023/09/20 05:03:02;;;;;;;1.92;1.33;;;16.30;99.90;;;;;;5033697;28;20524;-63
2023/09/20 05:05:28;;;;;;;0.90;0.73;;;16.10;99.90;;;;;;5033786;28;20500;-63
2023/09/20 05:07:54;;;;;;;1.45;1.00;;;16.70;99.90;;;;;;5033626;28;20077;-63
2023/09/20 05:10:19;;;;;;;1.73;0.70;;;16.00;99.90;;;;;;5033386;28;20095;-62
2023/09/20 05:12:47;;;;;;;0.98;0.70;;;16.00;99.90;;;;;;5033544;28;20033;-62
2023/09/20 05:15:13;;;;;;;1.80;1.00;;;16.00;99.90;;;;;;5015429;28;20073;-63
2023/09/20 05:17:45;;;;;;;1.13;1.00;;;15.90;99.90;;;;;;5033499;28;20452;-63
2023/09/20 05:20:14;;;;;;;1.45;1.02;;;15.90;99.90;;;;;;5033252;28;20099;-63
2023/09/20 05:22:40;;;;;;;1.17;0.80;;;15.90;99.90;;;;;;5033346;28;20042;-64
2023/09/20 05:25:07;;;;;;;2.20;1.02;;;15.90;99.90;;;;;;5033131;28;20034;-62
2023/09/20 05:27:33;;;;;;;2.03;1.15;;;15.80;99.90;;;;;;5033388;28;20374;-60
2023/09/20 05:29:59;;;;;;;1.58;0.80;;;16.20;99.90;;;;;;5033004;28;20043;-62
2023/09/20 05:32:25;;;;;;;4.20;1.70;;;15.80;99.90;;;;;;5033123;28;20049;-61
2023/09/20 05:34:50;;;;;;;1.70;1.15;;;15.80;99.90;;;;;;5033263;28;20133;-61
2023/09/20 05:37:16;;;;;;;0.77;0.70;;;15.80;99.90;;;;;;5033325;28;20037;-61
2023/09/20 05:39:43;;;;;;;1.58;1.02;;;15.80;99.90;;;;;;5033450;28;20037;-61
2023/09/20 05:42:09;;;;;;;1.42;0.75;;;15.80;99.90;;;;;;5033108;28;20049;-62
2023/09/20 05:44:36;;;;;;;1.00;0.77;;;15.70;99.90;;;;;;5033155;28;20409;-62
2023/09/20 05:47:05;;;;;;;1.67;0.90;;;15.70;99.90;;;;;;5033172;28;20486;-62
2023/09/20 05:49:30;;;;;;;2.08;1.10;;;15.80;99.90;;;;;;5032791;28;20052;-62
2023/09/20 05:51:56;;;;;;;1.50;0.70;;;15.70;99.90;;;;;;5033007;28;20050;-63
2023/09/20 05:54:22;;;;;;;1.17;0.85;;;15.70;99.90;;;;;;5033096;28;20029;-62
2023/09/20 05:56:48;;;;;;;2.83;1.05;;;15.70;99.90;;;;;;5033044;28;20049;-63
2023/09/20 05:59:17;;;;;;;1.50;1.08;;;15.80;99.90;;;;;;5032759;28;20548;-62
2023/09/20 06:01:42;;;;;;;2.05;1.17;;;15.70;99.90;;;;;;5033146;28;20033;-67
2023/09/20 06:04:11;;;;;;;1.35;0.70;;;15.70;99.90;;;;;;5032978;28;20120;-68
2023/09/20 06:06:40;;;;;;;1.92;1.05;;;15.80;99.90;;;;;;5032610;28;20041;-69
2023/09/20 06:09:06;;;;;;;0.65;0.57;;;15.80;99.90;;;;;;5033030;28;20033;-61
2023/09/20 06:11:31;;;;;;;1.55;0.93;;;15.80;99.90;;;;;;5018366;28;20507;-61
2023/09/20 06:13:57;;;;;;;1.15;1.02;;;15.90;99.90;;;;;;5036715;28;20041;-61
2023/09/20 06:16:23;;;;;;;0.80;0.80;;;15.90;99.90;;;;;;5035667;28;20053;-61
2023/09/20 06:18:49;;;;;;;1.45;0.90;;;16.00;99.90;;;;;;5035362;28;20037;-61
2023/09/20 06:21:17;;;;;;;1.25;1.00;;;16.00;99.90;;;;;;5035614;28;20091;-61
2023/09/20 06:23:43;;;;;;;1.67;0.90;;;16.00;99.90;;;;;;5035569;28;20049;-61
2023/09/20 06:26:11;;;;;;;0.80;0.70;;;16.00;99.90;;;;;;5035477;28;20091;-61
2023/09/20 06:28:37;;;;;;;0.50;0.50;;;16.00;99.90;;;;;;5035383;28;20053;-61
2023/09/20 06:31:03;;;;;;;1.25;0.80;;;16.00;99.90;;;;;;5035351;28;20473;-60
2023/09/20 06:33:29;;;;;;;0.88;0.88;;;16.00;99.90;;;;;;5035164;28;20113;-60
2023/09/20 06:35:55;;;;;;;1.30;0.82;;;16.10;99.90;;;;;;5017497;28;20180;-62
2023/09/20 06:38:23;;;;;;;1.20;0.82;;;16.10;99.90;;;;;;5035271;28;20397;-62
2023/09/20 06:40:52;;;;;;;0.75;0.75;;;16.10;99.90;;;;;;5035173;28;20091;-62
2023/09/20 06:43:18;;;;;;;1.23;0.80;;;16.10;99.90;;;;;;5035144;28;20392;-63
2023/09/20 06:45:51;;;;;;;0.75;0.50;;;16.10;99.90;;;;;;5035161;28;20034;-62
2023/09/20 06:48:23;;;;;;;0.73;0.70;;;16.20;99.90;;;;;;5034888;28;20535;-62
2023/09/20 06:50:55;;;;;;;1.45;0.88;;;16.20;99.90;;;;;;5035024;28;20033;-61
2023/09/20 06:53:23;;;;;;;0.80;0.70;;;16.30;99.90;;;;;;5034667;28;20121;-62
2023/09/20 06:55:49;;;;;;;0.73;0.50;;;16.30;99.90;;;;;;5017024;28;20412;-63
2023/09/20 06:58:15;;;;;;;0.95;0.63;;;16.40;99.90;;;;;;5035041;28;20041;-63
2023/09/20 07:00:42;;;;;;;1.60;1.13;;;16.50;99.90;;;;;;5034541;28;20087;-62
2023/09/20 07:03:09;;;;;;;0.73;0.70;;;16.50;99.90;;;;;;5034637;28;20081;-62
2023/09/20 07:05:36;;;;;;;0.77;0.65;;;17.00;99.90;;;;;;5034576;28;20041;-62
2023/09/20 07:08:02;;;;;;;1.15;0.88;;;16.60;99.90;;;;;;5034852;28;20459;-62
2023/09/20 07:10:29;;;;;;;1.08;0.90;;;16.60;99.90;;;;;;5034767;28;20049;-62
2023/09/20 07:12:54;;;;;;;1.13;0.77;;;16.70;99.90;;;;;;5034600;28;20124;-62
2023/09/20 07:15:24;;;;;;;1.92;0.80;;;16.70;99.90;;;;;;4998043;28;1050986;-63
2023/09/20 07:17:58;;;;;;;1.67;0.90;;;16.70;99.90;;;;;;5035839;28;20135;-63
2023/09/20 07:20:24;;;;;;;0.75;0.70;;;16.70;99.90;;;;;;5035841;28;20030;-62
2023/09/20 07:22:51;;;;;;;1.30;0.80;;;16.70;99.90;;;;;;5035014;28;20045;-62
2023/09/20 07:25:19;;;;;;;0.63;0.52;;;16.60;99.90;;;;;;5035523;28;20151;-62
2023/09/20 07:27:49;;;;;;;1.60;0.80;;;16.70;99.90;;;;;;5035588;28;20543;-62
2023/09/20 07:30:19;;;;;;;2.00;0.93;;;16.70;99.90;;;;;;5035612;28;20091;-62
2023/09/20 07:32:48;;;;;;;0.60;0.60;;;16.80;99.90;;;;;;5035479;28;20489;-62
2023/09/20 07:35:36;;;;;;;0.60;0.60;;;16.80;99.90;;;;;;5035087;28;20033;-63
2023/09/20 07:38:04;;;;;;;0.90;0.85;;;16.90;99.90;;;;;;5035437;28;20038;-62
2023/09/20 07:40:38;;;;;;;1.35;0.80;;;16.90;99.90;;;;;;5035072;28;20048;-62
2023/09/20 07:43:07;;;;;;;1.23;0.80;;;17.00;99.90;;;;;;5035285;28;20068;-63
2023/09/20 07:45:41;;;;;;;2.08;1.10;;;17.00;99.90;;;;;;5017506;28;20156;-63
2023/09/20 07:48:13;;;;;;;1.13;0.88;;;17.10;99.90;;;;;;5034995;28;20481;-62
2023/09/20 07:50:44;;;;;;;1.00;0.90;;;17.20;99.90;;;;;;5035229;28;20505;-63
2023/09/20 07:53:11;;;;;;;1.35;0.88;;;17.30;99.90;;;;;;5035047;28;20389;-63
2023/09/20 07:55:44;;;;;;;2.10;1.10;;;17.30;99.90;;;;;;5034850;28;20041;-62
2023/09/20 07:58:10;;;;;;;0.85;0.70;;;17.40;99.90;;;;;;5017269;28;20396;-62
2023/09/20 08:00:44;;;;;;;2.47;1.55;;;17.30;99.90;;;;;;5034995;28;20401;-62
2023/09/20 08:03:13;;;;;;;1.17;0.93;;;17.30;99.90;;;;;;5034983;28;20548;-62
2023/09/20 08:05:38;;;;;;;1.05;0.80;;;17.40;99.90;;;;;;5034929;28;20050;-63
2023/09/20 08:08:07;;;;;;;3.00;1.17;;;17.40;99.90;;;;;;5034600;28;20398;-62
2023/09/20 08:10:35;;;;;;;1.65;1.00;;;17.40;99.90;;;;;;5016832;28;20042;-63
2023/09/20 08:13:05;;;;;;;1.42;0.88;;;17.50;99.90;;;;;;5034697;28;20042;-62
2023/09/20 08:15:36;;;;;;;0.98;0.80;;;17.50;99.90;;;;;;5016738;28;20041;-62
2023/09/20 08:20:46;;;;;;;0.82;0.80;;;17.50;99.90;;;;;;5034419;28;19921;-65
2023/09/20 09:01:44;;;;;;;1.42;1.00;;;18.90;99.90;;;;;;5033808;28;20041;-65
2023/09/20 09:04:12;;;;;;;0.80;0.80;;;18.30;99.90;;;;;;5033799;28;20045;-65
2023/09/20 09:06:38;;;;;;;1.70;1.13;;;;;;;;;;5033520;28;20116;-65
2023/09/20 09:09:04;;;;;;;1.05;0.82;;;18.10;99.90;;;;;;5033701;28;20405;-66
2023/09/20 09:11:30;;;;;;;1.67;0.90;;;18.10;99.90;;;;;;5033653;28;20033;-65
2023/09/20 09:13:59;;;;;;;1.20;1.00;;;18.10;99.90;;;;;;5033592;28;20538;-65
2023/09/20 09:16:26;;;;;;;1.45;1.08;;;18.20;99.90;;;;;;5033265;28;20135;-65
2023/09/20 09:18:54;;;;;;;1.05;0.98;;;18.10;99.90;;;;;;5033555;28;20052;-65
2023/09/20 09:21:20;;;;;;;1.17;0.80;;;18.10;99.90;;;;;;5033533;28;20045;-65
2023/09/20 09:23:47;;;;;;;1.33;1.10;;;18.00;99.90;;;;;;5015629;28;20481;-66
2023/09/20 09:26:15;;;;;;;1.48;0.90;;;18.20;99.90;;;;;;5033400;28;20444;-65
2023/09/20 09:28:42;;;;;;;1.17;1.08;;;18.20;99.90;;;;;;5033389;28;20037;-65
2023/09/20 09:31:09;;;;;;;1.13;0.80;;;18.20;99.90;;;;;;5033499;28;20045;-70
2023/09/20 09:33:37;;;;;;;1.35;0.80;;;18.20;99.90;;;;;;5033281;28;20440;-66
2023/09/20 09:36:04;;;;;;;0.80;0.70;;;18.30;99.90;;;;;;5032963;28;20401;-66
2023/09/20 09:38:33;;;;;;;0.95;0.85;;;18.30;99.90;;;;;;5015308;28;20095;-66
2023/09/20 09:40:59;;;;;;;1.33;1.00;;;18.20;99.90;;;;;;5015445;28;20041;-64
2023/09/20 09:43:32;;;;;;;1.83;1.17;;;18.40;99.90;;;;;;5033152;28;20045;-64
2023/09/20 09:46:06;;;;;;;1.35;0.80;;;18.40;99.90;;;;;;5032715;28;20052;-65
2023/09/20 09:48:33;;;;;;;1.17;0.88;;;;;;;;;;5033180;28;20045;-64
2023/09/20 09:51:04;;;;;;;2.25;0.80;;;;;;;;;;5032910;28;20041;-64
2023/09/20 09:53:30;;;;;;;1.20;0.95;;;18.60;99.90;;;;;;5033035;28;20049;-64
2023/09/20 09:55:56;;;;;;;1.00;0.90;;;18.70;99.90;;;;;;5031816;28;20443;-62
2023/09/20 09:58:22;;;;;;;0.82;0.70;;;18.70;99.90;;;;;;5014976;28;20401;-62
2023/09/20 10:00:50;;;;;;;0.98;0.70;;;18.80;99.90;;;;;;5032996;28;20052;-62
2023/09/20 10:03:29;;;;;;;1.05;0.70;;;18.80;99.90;;;;;;5032788;28;20052;-62
2023/09/20 10:06:01;;;;;;;0.77;0.77;;;18.90;99.90;;;;;;5032904;28;20038;-62
2023/09/20 10:08:31;;;;;;;0.90;0.90;;;18.90;99.90;;;;;;5032894;28;20042;-62
2023/09/20 10:11:00;;;;;;;1.10;0.90;;;18.90;99.90;;;;;;5032669;28;20152;-62
2023/09/20 10:13:29;;;;;;;1.08;0.98;;;18.90;99.90;;;;;;5032502;28;20112;-62
2023/09/20 10:15:57;;;;;;;1.20;0.85;;;18.90;99.90;;;;;;5014902;28;20121;-62
2023/09/20 10:18:27;;;;;;;2.25;1.10;;;18.90;99.90;;;;;;5032836;28;20045;-62
2023/09/20 10:21:04;;;;;;;1.50;0.80;;;18.90;99.90;;;;;;5032585;28;20040;-62
2023/09/20 10:23:31;;;;;;;1.13;0.70;;;18.90;99.90;;;;;;5032832;28;20392;-62
2023/09/20 10:26:00;;;;;;;0.98;0.90;;;18.90;99.90;;;;;;5032780;28;20048;-62
2023/09/20 10:28:31;;;;;;;0.90;0.85;;;19.30;99.90;;;;;;5032475;28;20045;-61
2023/09/20 10:31:04;;;;;;;0.70;0.70;;;19.00;99.90;;;;;;5014871;28;20121;-62
2023/09/20 10:33:41;;;;;;;0.90;0.88;;;19.00;99.90;;;;;;5032643;28;20037;-62
2023/09/20 10:36:07;;;;;;;0.93;0.80;;;19.00;99.70;;;;;;5032357;28;20076;-63
2023/09/20 10:38:33;;;;;;;0.85;0.80;;;19.10;99.90;;;;;;5032343;28;20084;-62
2023/09/20 10:41:05;;;;;;;0.68;0.68;;;19.10;99.90;;;;;;5032728;28;20478;-63
2023/09/20 10:43:36;;;;;;;1.20;1.08;;;19.10;99.90;;;;;;5032343;28;20046;-66
2023/09/20 10:46:09;;;;;;;0.60;0.50;;;19.10;99.60;;;;;;5032563;28;20481;-63
2023/09/20 10:48:39;;;;;;;0.93;0.70;;;19.20;99.30;;;;;;5032354;28;20084;-62
2023/09/20 10:51:06;;;;;;;0.75;0.75;;;19.10;99.90;;;;;;5032565;28;20132;-64
2023/09/20 10:53:44;;;;;;;0.57;0.57;;;19.20;99.90;;;;;;5032473;28;20432;-67
2023/09/20 10:56:12;;;;;;;0.80;0.80;;;19.10;99.70;;;;;;5033292;28;20121;-66
2023/09/20 10:58:43;;;;;;;1.50;1.02;;;19.10;99.90;;;;;;5036154;28;20116;-67
2023/09/20 11:01:10;;;;;;;0.63;0.63;;;19.10;99.50;;;;;;5036071;28;20200;-67
2023/09/20 11:03:36;;;;;;;0.70;0.70;;;19.10;98.20;;;;;;5036166;28;20053;-67
2023/09/20 11:06:02;;;;;;;1.20;1.10;;;19.00;98.50;;;;;;5036049;28;20103;-66
2023/09/20 11:08:28;;;;;;;1.33;0.85;;;19.00;99.60;;;;;;5036006;28;20473;-67
2023/09/20 11:10:58;;;;;;;1.77;0.70;;;19.00;99.10;;;;;;5035948;28;20037;-67
2023/09/20 11:13:24;;;;;;;1.10;0.75;;;18.90;99.40;;;;;;5035904;28;20045;-67
2023/09/20 11:15:50;;;;;;;2.25;0.70;;;19.10;99.40;;;;;;5035546;28;20050;-67
2023/09/20 11:18:17;;;;;;;0.77;0.60;;;19.10;99.60;;;;;;5018052;28;20042;-67
2023/09/20 11:20:43;;;;;;;0.70;0.57;;;19.00;99.90;;;;;;5035800;28;20042;-66
2023/09/20 11:23:09;;;;;;;0.63;0.63;;;19.10;99.80;;;;;;5035758;28;20045;-67
2023/09/20 11:25:36;;;;;;;1.23;0.75;;;19.10;99.90;;;;;;5035712;28;20056;-67
2023/09/20 11:28:02;;;;;;;0.68;0.55;;;19.10;99.90;;;;;;5035650;28;20052;-67
2023/09/20 11:30:28;;;;;;;0.60;0.60;;;19.30;99.20;;;;;;5035524;28;20041;-67
2023/09/20 11:32:55;;;;;;;1.15;0.65;;;19.30;98.90;;;;;;5035484;28;20485;-66
2023/09/20 11:35:34;;;;;;;0.77;0.73;;;19.20;98.90;;;;;;5035204;28;20124;-67
2023/09/20 11:38:04;;;;;;;0.82;0.80;;;20.00;97.70;;;;;;5035419;28;20168;-67
2023/09/20 11:40:35;;;;;;;0.80;0.70;;;19.50;96.00;;;;;;5035230;28;20447;-67
2023/09/20 11:43:06;;;;;;;0.50;0.50;;;19.50;93.00;;;;;;5035196;28;20129;-67
2023/09/20 11:45:34;;;;;;;1.23;0.68;;;19.40;93.80;;;;;;5034976;28;20160;-66
2023/09/20 11:48:08;;;;;;;0.85;0.70;;;19.50;92.40;;;;;;5034959;28;20103;-66
2023/09/20 11:50:42;;;;;;;1.75;0.90;;;19.50;90.20;;;;;;5035008;28;20493;-63
2023/09/20 11:53:12;;;;;;;0.80;0.70;;;19.50;92.10;;;;;;5035021;28;20069;-70
2023/09/20 11:55:43;;;;;;;0.60;0.60;;;19.70;90.50;;;;;;5035132;28;20062;-69
2023/09/20 11:58:10;;;;;;;1.00;0.93;;;19.70;88.30;;;;;;5035115;28;20131;-71
2023/09/20 12:00:36;;;;;;;1.02;0.90;;;19.70;81.30;;;;;;5035071;28;20095;-65
2023/09/20 12:03:02;;;;;;;0.60;0.60;;;19.80;87.30;;;;;;5034582;28;20098;-69
2023/09/20 12:05:28;;;;;;;0.98;0.80;;;19.80;79.90;;;;;;5034613;28;20034;-67
2023/09/20 12:07:56;;;;;;;0.55;0.55;;;19.90;83.10;;;;;;5033642;28;20045;-68
2023/09/20 12:10:24;;;;;;;1.10;0.98;;;20.00;82.80;;;;;;5034840;28;20033;-67
2023/09/20 12:12:51;;;;;;;0.93;0.90;;;20.10;74.50;;;;;;5034580;28;20041;-68
2023/09/20 12:15:17;;;;;;;0.70;0.70;;;20.20;72.10;;;;;;5016398;28;20130;-69
2023/09/20 12:17:42;;;;;;;0.70;0.70;;;20.30;69.30;;;;;;5034357;28;20120;-68
2023/09/20 12:20:12;;;;;;;1.00;0.75;;;20.30;69.90;;;;;;5016580;28;20037;-70
2023/09/20 12:22:38;;;;;;;0.85;0.80;;;20.30;71.20;;;;;;5034519;28;20116;-71
2023/09/20 12:25:06;;;;;;;1.25;0.80;;;20.40;66.20;;;;;;5034234;28;20120;-70
2023/09/20 12:27:32;;;;;;;0.70;0.70;;;20.40;59.80;;;;;;5034216;28;20041;-69
2023/09/20 12:29:58;;;;;;;1.00;0.90;;;20.50;63.50;;;;;;5034403;28;20077;-69
2023/09/20 12:32:24;;;;;;;1.20;1.10;;;20.60;66.80;;;;;;5034352;28;20517;-70
2023/09/20 12:34:51;;;;;;;1.10;1.00;;;20.60;56.50;;;;;;5034325;28;20112;-71
2023/09/20 12:37:19;;;;;;;1.40;1.05;;;20.60;36.40;;;;;;5016619;28;20049;-68
2023/09/20 12:39:46;;;;;;;1.40;0.90;;;20.60;43.50;;;;;;5034252;28;20481;-67
2023/09/20 12:42:13;;;;;;;0.70;0.70;;;20.60;46.40;;;;;;5034235;28;20120;-67
2023/09/20 12:44:38;;;;;;;1.00;0.95;;;20.60;45.90;;;;;;5033882;28;20474;-70
2023/09/20 12:47:04;;;;;;;1.30;1.20;;;20.60;38.20;;;;;;5034125;28;20041;-71
2023/09/20 12:49:29;;;;;;;0.98;0.80;;;20.70;35.20;;;;;;5016125;28;20045;-70
2023/09/20 12:51:55;;;;;;;1.00;0.90;;;20.80;40.40;;;;;;5033887;28;20443;-69
2023/09/20 12:54:21;;;;;;;0.88;0.88;;;20.90;20.10;;;;;;5033710;28;20456;-69
2023/09/20 12:56:46;;;;;;;1.20;1.10;;;21.00;27.00;;;;;;5033874;28;20040;-69
2023/09/20 12:59:13;;;;;;;1.15;1.05;;;21.10;21.60;;;;;;5033830;28;20037;-71
2023/09/20 13:01:38;;;;;;;1.25;1.15;;;21.10;14.50;;;;;;5033889;28;20045;-66
2023/09/20 13:04:04;;;;;;;2.65;1.00;;;21.10;9.30;;;;;;5033512;28;20444;-65
2023/09/20 13:06:36;;;;;;;1.27;1.17;;;21.10;17.00;;;;;;5016041;28;20128;-65
2023/09/20 13:09:02;;;;;;;0.88;0.88;;;21.00;3.60;;;;;;5033661;28;20045;-66
2023/09/20 13:11:28;;;;;;;0.95;0.85;;;21.10;19.60;;;;;;5033519;28;20087;-64
2023/09/20 13:13:53;;;;;;;0.80;0.80;;;21.10;1.00;;;;;;5033464;28;20077;-64
2023/09/20 13:16:19;;;;;;;1.40;1.10;;;21.10;14.60;;;;;;5033214;28;20060;-64
2023/09/20 13:18:44;;;;;;;0.80;0.80;;;21.20;13.00;;;;;;5033147;28;20046;-65
2023/09/20 13:21:10;;;;;;;0.90;0.80;;;21.00;15.40;;;;;;5033518;28;20033;-64
2023/09/20 13:23:36;;;;;;;3.88;1.20;;;21.10;21.60;;;;;;5033481;28;20390;-64
2023/09/20 13:26:04;;;;;;;1.15;0.98;;;21.10;1.00;;;;;;5033367;28;20045;-64
2023/09/20 13:28:30;;;;;;;0.75;0.75;;;21.10;2.30;;;;;;5033019;28;20038;-64
2023/09/20 13:30:56;;;;;;;1.52;1.00;;;21.10;7.80;;;;;;5033296;28;20040;-64